createdAt,value
2019-02-02T00:00:40.146Z,72.82
2019-02-02T00:01:46.900Z,72.83
2019-02-02T00:02:52.952Z,72.86
2019-02-02T00:03:58.913Z,72.90
2019-02-02T00:05:07.562Z,73.01
2019-02-02T00:06:13.383Z,72.92
2019-02-02T00:07:19.357Z,72.88
2019-02-02T00:08:25.574Z,72.89
2019-02-02T00:09:31.820Z,72.92
2019-02-02T00:10:37.977Z,72.87
2019-02-02T00:11:44.077Z,73.01
2019-02-02T00:12:50.491Z,73.12
2019-02-02T00:13:56.759Z,73.22
2019-02-02T00:15:03.108Z,73.30
2019-02-02T00:16:09.362Z,73.43
2019-02-02T00:17:15.403Z,73.53
2019-02-02T00:18:21.365Z,73.27
2019-02-02T00:19:27.559Z,73.05
2019-02-02T00:20:33.696Z,72.91
2019-02-02T00:21:40.093Z,72.83
2019-02-02T00:22:46.363Z,72.82
2019-02-02T00:23:52.734Z,72.92
2019-02-02T00:24:58.984Z,72.97
2019-02-02T00:26:05.649Z,72.95
2019-02-02T00:27:11.491Z,72.98
2019-02-02T00:28:17.689Z,72.99
2019-02-02T00:29:23.590Z,72.94
2019-02-02T00:30:29.867Z,72.94
2019-02-02T00:31:36.086Z,73.00
2019-02-02T00:32:42.182Z,73.16
2019-02-02T00:33:48.308Z,73.30
2019-02-02T00:34:54.143Z,73.45
2019-02-02T00:36:00.158Z,73.54
2019-02-02T00:37:06.271Z,73.49
2019-02-02T00:38:12.509Z,73.48
2019-02-02T00:39:18.691Z,73.44
2019-02-02T00:40:25.077Z,73.39
2019-02-02T00:41:31.490Z,73.31
2019-02-02T00:42:37.595Z,73.33
2019-02-02T00:43:43.522Z,73.53
2019-02-02T00:44:49.442Z,73.51
2019-02-02T00:45:56.475Z,73.62
2019-02-02T00:47:02.583Z,73.61
2019-02-02T00:48:08.404Z,73.65
2019-02-02T00:49:14.679Z,73.58
2019-02-02T00:50:20.778Z,73.68
2019-02-02T00:51:27.066Z,73.68
2019-02-02T00:52:33.446Z,73.93
2019-02-02T00:53:39.573Z,73.97
2019-02-02T00:54:45.642Z,73.85
2019-02-02T00:55:51.738Z,73.74
2019-02-02T00:56:58.625Z,73.66
2019-02-02T00:58:06.151Z,73.61
2019-02-02T00:59:12.328Z,73.53
2019-02-02T01:00:19.604Z,73.56
2019-02-02T01:01:25.680Z,73.64
2019-02-02T01:02:31.930Z,73.64
2019-02-02T01:03:38.146Z,73.65
2019-02-02T01:04:44.364Z,73.59
2019-02-02T01:05:50.497Z,73.58
2019-02-02T01:06:57.328Z,73.82
2019-02-02T01:08:03.569Z,73.74
2019-02-02T01:09:12.080Z,73.69
2019-02-02T01:10:23.346Z,73.64
2019-02-02T01:11:29.298Z,73.65
2019-02-02T01:12:35.212Z,73.73
2019-02-02T01:13:41.222Z,73.81
2019-02-02T01:14:47.048Z,73.75
2019-02-02T01:15:52.736Z,73.84
2019-02-02T01:16:58.971Z,73.54
2019-02-02T01:18:05.684Z,73.45
2019-02-02T01:19:12.033Z,73.51
2019-02-02T01:20:19.007Z,73.35
2019-02-02T01:21:24.935Z,73.32
2019-02-02T01:22:30.947Z,73.33
2019-02-02T01:23:37.042Z,73.15
2019-02-02T01:24:43.248Z,73.25
2019-02-02T01:25:49.493Z,73.37
2019-02-02T01:26:56.290Z,73.47
2019-02-02T01:28:05.357Z,73.54
2019-02-02T01:29:10.488Z,73.46
2019-02-02T01:30:23.120Z,73.41
2019-02-02T01:31:29.328Z,73.37
2019-02-02T01:32:35.508Z,73.30
2019-02-02T01:33:41.612Z,73.01
2019-02-02T01:34:47.739Z,73.08
2019-02-02T01:35:54.082Z,73.01
2019-02-02T01:37:00.125Z,73.09
2019-02-02T01:38:06.262Z,73.05
2019-02-02T01:39:12.356Z,73.00
2019-02-02T01:40:26.361Z,72.91
2019-02-02T01:41:32.592Z,72.76
2019-02-02T01:42:38.715Z,72.68
2019-02-02T01:43:44.979Z,72.67
2019-02-02T01:44:51.117Z,72.72
2019-02-02T01:45:57.429Z,72.85
2019-02-02T01:47:03.587Z,72.87
2019-02-02T01:48:09.701Z,72.92
2019-02-02T01:49:15.814Z,72.91
2019-02-02T01:50:25.148Z,72.92
2019-02-02T01:51:31.375Z,72.87
2019-02-02T01:52:37.548Z,72.87
2019-02-02T01:53:43.717Z,72.73
2019-02-02T01:54:49.895Z,72.68
2019-02-02T01:55:56.072Z,72.74
2019-02-02T01:57:02.210Z,72.66
2019-02-02T01:58:16.368Z,72.61
2019-02-02T01:59:16.305Z,72.75
2019-02-02T02:00:32.220Z,72.95
2019-02-02T02:01:58.203Z,73.03
2019-02-02T02:03:05.269Z,72.87
2019-02-02T02:04:11.400Z,72.92
2019-02-02T02:05:17.513Z,72.79
2019-02-02T02:06:23.707Z,72.80
2019-02-02T02:07:29.853Z,72.88
2019-02-02T02:08:36.481Z,72.89
2019-02-02T02:09:42.879Z,72.93
2019-02-02T02:10:49.047Z,73.13
2019-02-02T02:11:55.028Z,72.97
2019-02-02T02:13:01.091Z,72.82
2019-02-02T02:14:07.434Z,72.77
2019-02-02T02:15:17.316Z,72.72
2019-02-02T02:16:23.770Z,72.50
2019-02-02T02:17:29.922Z,72.51
2019-02-02T02:18:36.359Z,72.68
2019-02-02T02:19:42.600Z,72.75
2019-02-02T02:20:49.032Z,72.93
2019-02-02T02:21:55.018Z,72.99
2019-02-02T02:23:01.041Z,72.88
2019-02-02T02:24:07.374Z,72.78
2019-02-02T02:25:19.553Z,72.75
2019-02-02T02:26:25.799Z,72.66
2019-02-02T02:27:31.911Z,72.75
2019-02-02T02:28:37.992Z,72.81
2019-02-02T02:29:44.477Z,72.81
2019-02-02T02:30:50.581Z,72.72
2019-02-02T02:31:56.794Z,72.86
2019-02-02T02:33:03.612Z,72.72
2019-02-02T02:34:09.732Z,72.86
2019-02-02T02:35:15.732Z,73.05
2019-02-02T02:36:21.693Z,72.90
2019-02-02T02:37:27.779Z,72.81
2019-02-02T02:38:33.776Z,72.72
2019-02-02T02:39:39.717Z,72.69
2019-02-02T02:40:45.556Z,72.77
2019-02-02T02:41:51.544Z,72.93
2019-02-02T02:42:57.640Z,72.90
2019-02-02T02:44:04.233Z,72.91
2019-02-02T02:45:12.585Z,73.00
2019-02-02T02:46:18.790Z,72.96
2019-02-02T02:47:25.103Z,73.10
2019-02-02T02:48:31.188Z,73.08
2019-02-02T02:49:37.604Z,72.98
2019-02-02T02:50:43.806Z,72.97
2019-02-02T02:51:49.926Z,72.86
2019-02-02T02:52:56.296Z,73.04
2019-02-02T02:54:02.464Z,72.97
2019-02-02T02:55:14.062Z,72.94
2019-02-02T02:56:20.224Z,72.86
2019-02-02T02:57:26.647Z,72.89
2019-02-02T02:58:40.827Z,72.82
2019-02-02T02:59:40.979Z,72.76
2019-02-02T03:00:47.432Z,72.86
2019-02-02T03:01:53.786Z,72.78
2019-02-02T03:02:59.600Z,72.77
2019-02-02T03:04:05.998Z,72.72
2019-02-02T03:05:12.831Z,72.97
2019-02-02T03:06:19.009Z,72.84
2019-02-02T03:07:25.099Z,72.80
2019-02-02T03:08:31.363Z,72.89
2019-02-02T03:09:37.785Z,72.76
2019-02-02T03:10:44.397Z,72.70
2019-02-02T03:11:50.578Z,72.90
2019-02-02T03:12:57.151Z,72.94
2019-02-02T03:14:03.612Z,73.01
2019-02-02T03:15:17.123Z,72.79
2019-02-02T03:16:23.392Z,72.76
2019-02-02T03:17:29.740Z,72.85
2019-02-02T03:18:37.241Z,72.79
2019-02-02T03:19:43.472Z,72.72
2019-02-02T03:20:49.741Z,72.86
2019-02-02T03:21:57.564Z,72.76
2019-02-02T03:23:03.779Z,72.96
2019-02-02T03:24:11.255Z,72.95
2019-02-02T03:25:25.930Z,72.97
2019-02-02T03:26:32.114Z,72.97
2019-02-02T03:27:38.438Z,72.74
2019-02-02T03:28:53.072Z,72.87
2019-02-02T03:29:52.681Z,72.96
2019-02-02T03:30:58.576Z,73.17
2019-02-02T03:32:05.568Z,73.21
2019-02-02T03:33:11.511Z,73.38
2019-02-02T03:34:17.992Z,73.33
2019-02-02T03:35:25.138Z,73.10
2019-02-02T03:36:31.024Z,73.13
2019-02-02T03:37:37.273Z,73.01
2019-02-02T03:38:43.458Z,73.21
2019-02-02T03:39:50.211Z,73.18
2019-02-02T03:40:56.361Z,73.14
2019-02-02T03:42:02.504Z,73.14
2019-02-02T03:43:08.604Z,73.07
2019-02-02T03:44:14.768Z,73.26
2019-02-02T03:45:23.740Z,73.24
2019-02-02T03:46:31.200Z,73.35
2019-02-02T03:47:37.279Z,73.46
2019-02-02T03:48:43.393Z,73.56
2019-02-02T03:49:49.625Z,73.47
2019-02-02T03:50:55.993Z,73.60
2019-02-02T03:52:02.271Z,73.74
2019-02-02T03:53:08.376Z,73.77
2019-02-02T03:54:14.553Z,73.79
2019-02-02T03:55:20.814Z,73.73
2019-02-02T03:56:26.961Z,73.69
2019-02-02T03:57:33.431Z,73.45
2019-02-02T03:58:39.603Z,73.62
2019-02-02T03:59:45.826Z,73.61
2019-02-02T04:00:51.973Z,73.44
2019-02-02T04:01:58.684Z,73.52
2019-02-02T04:03:05.991Z,73.55
2019-02-02T04:04:12.363Z,73.66
2019-02-02T04:05:23.221Z,73.70
2019-02-02T04:06:29.364Z,73.51
2019-02-02T04:07:35.561Z,73.65
2019-02-02T04:08:41.884Z,73.85
2019-02-02T04:09:47.719Z,73.85
2019-02-02T04:10:53.783Z,74.08
2019-02-02T04:11:59.892Z,74.17
2019-02-02T04:13:05.853Z,74.12
2019-02-02T04:14:12.014Z,74.11
2019-02-02T04:15:19.495Z,74.27
2019-02-02T04:16:25.599Z,74.18
2019-02-02T04:17:31.674Z,74.39
2019-02-02T04:18:37.860Z,74.19
2019-02-02T04:19:44.165Z,74.19
2019-02-02T04:20:49.999Z,74.24
2019-02-02T04:21:55.665Z,74.33
2019-02-02T04:23:01.390Z,74.55
2019-02-02T04:24:07.572Z,74.68
2019-02-02T04:25:13.744Z,74.85
2019-02-02T04:26:19.472Z,74.92
2019-02-02T04:27:25.491Z,74.95
2019-02-02T04:28:31.622Z,74.79
2019-02-02T04:29:37.638Z,74.81
2019-02-02T04:30:43.789Z,74.77
2019-02-02T04:31:49.723Z,74.84
2019-02-02T04:32:55.724Z,74.78
2019-02-02T04:34:01.574Z,74.92
2019-02-02T04:35:11.319Z,74.81
2019-02-02T04:36:17.568Z,74.84
2019-02-02T04:37:23.706Z,74.86
2019-02-02T04:38:29.804Z,74.98
2019-02-02T04:39:35.714Z,74.95
2019-02-02T04:40:41.672Z,75.08
2019-02-02T04:41:47.324Z,75.25
2019-02-02T04:42:53.352Z,75.26
2019-02-02T04:43:59.569Z,75.28
2019-02-02T04:45:08.725Z,75.37
2019-02-02T04:46:14.826Z,75.34
2019-02-02T04:47:21.276Z,75.50
2019-02-02T04:48:27.312Z,75.44
2019-02-02T04:49:33.252Z,75.27
2019-02-02T04:50:39.396Z,75.36
2019-02-02T04:51:45.783Z,75.56
2019-02-02T04:52:52.263Z,75.56
2019-02-02T04:53:58.618Z,75.59
2019-02-02T04:55:07.320Z,75.63
2019-02-02T04:56:13.184Z,75.62
2019-02-02T04:57:20.300Z,75.79
2019-02-02T04:58:26.449Z,75.70
2019-02-02T04:59:32.668Z,75.55
2019-02-02T05:00:38.948Z,75.69
2019-02-02T05:01:45.073Z,75.79
2019-02-02T05:02:51.108Z,75.89
2019-02-02T05:03:56.845Z,75.72
2019-02-02T05:05:02.643Z,75.57
2019-02-02T05:06:08.953Z,75.61
2019-02-02T05:07:15.177Z,75.53
2019-02-02T05:08:21.251Z,75.67
2019-02-02T05:09:27.076Z,75.67
2019-02-02T05:10:32.773Z,75.89
2019-02-02T05:11:38.515Z,76.04
2019-02-02T05:12:44.540Z,76.02
2019-02-02T05:13:50.909Z,76.12
2019-02-02T05:14:57.362Z,76.21
2019-02-02T05:16:03.463Z,76.09
2019-02-02T05:17:09.570Z,75.88
2019-02-02T05:18:16.213Z,75.76
2019-02-02T05:19:22.315Z,75.97
2019-02-02T05:20:28.485Z,75.89
2019-02-02T05:21:34.598Z,76.00
2019-02-02T05:22:40.850Z,76.21
2019-02-02T05:23:46.669Z,76.32
2019-02-02T05:24:53.092Z,76.27
2019-02-02T05:25:59.253Z,76.12
2019-02-02T05:27:05.883Z,76.34
2019-02-02T05:28:12.088Z,76.33
2019-02-02T05:29:18.533Z,76.08
2019-02-02T05:30:27.535Z,76.11
2019-02-02T05:31:33.769Z,76.23
2019-02-02T05:32:39.878Z,76.44
2019-02-02T05:33:46.719Z,76.26
2019-02-02T05:34:53.293Z,76.14
2019-02-02T05:35:59.438Z,76.18
2019-02-02T05:37:05.731Z,76.19
2019-02-02T05:38:11.927Z,76.26
2019-02-02T05:39:18.149Z,76.20
2019-02-02T05:40:25.199Z,76.28
2019-02-02T05:41:31.324Z,76.20
2019-02-02T05:42:37.694Z,76.20
2019-02-02T05:43:43.849Z,76.33
2019-02-02T05:44:49.673Z,76.36
2019-02-02T05:45:55.813Z,76.25
2019-02-02T05:47:01.717Z,76.43
2019-02-02T05:48:07.389Z,76.42
2019-02-02T05:49:13.660Z,76.47
2019-02-02T05:50:25.449Z,76.27
2019-02-02T05:51:31.562Z,76.32
2019-02-02T05:52:37.722Z,76.21
2019-02-02T05:53:43.617Z,76.28
2019-02-02T05:54:50.101Z,76.35
2019-02-02T05:55:56.354Z,76.26
2019-02-02T05:57:02.193Z,76.24
2019-02-02T05:58:08.338Z,76.42
2019-02-02T05:59:14.266Z,76.36
2019-02-02T06:00:34.005Z,76.42
2019-02-02T06:01:41.648Z,76.47
2019-02-02T06:02:47.801Z,76.53
2019-02-02T06:03:53.957Z,76.40
2019-02-02T06:05:00.448Z,76.37
2019-02-02T06:06:06.873Z,76.37
2019-02-02T06:07:13.212Z,76.35
2019-02-02T06:08:19.531Z,76.46
2019-02-02T06:09:25.834Z,76.55
2019-02-02T06:10:32.187Z,76.57
2019-02-02T06:11:38.272Z,76.77
2019-02-02T06:12:44.533Z,76.69
2019-02-02T06:13:50.636Z,76.70
2019-02-02T06:14:56.810Z,76.70
2019-02-02T06:16:03.308Z,76.74
2019-02-02T06:17:09.673Z,76.80
2019-02-02T06:18:15.898Z,76.64
2019-02-02T06:19:22.486Z,76.67
2019-02-02T06:20:29.695Z,76.77
2019-02-02T06:21:35.986Z,76.78
2019-02-02T06:22:42.270Z,76.71
2019-02-02T06:23:48.702Z,76.70
2019-02-02T06:24:54.920Z,76.77
2019-02-02T06:26:01.055Z,76.73
2019-02-02T06:27:07.050Z,76.82
2019-02-02T06:28:13.161Z,76.84
2019-02-02T06:29:19.252Z,76.76
2019-02-02T06:30:26.368Z,76.64
2019-02-02T06:31:32.644Z,76.71
2019-02-02T06:32:38.481Z,76.73
2019-02-02T06:33:44.822Z,76.77
2019-02-02T06:34:50.920Z,76.81
2019-02-02T06:35:57.420Z,76.71
2019-02-02T06:37:03.627Z,76.73
2019-02-02T06:38:09.822Z,76.89
2019-02-02T06:39:15.698Z,76.87
2019-02-02T06:40:21.833Z,76.82
2019-02-02T06:41:27.661Z,76.74
2019-02-02T06:42:33.633Z,76.77
2019-02-02T06:43:39.727Z,76.91
2019-02-02T06:44:46.026Z,76.90
2019-02-02T06:45:52.006Z,76.94
2019-02-02T06:46:58.060Z,76.84
2019-02-02T06:48:05.720Z,76.89
2019-02-02T06:49:12.507Z,77.12
2019-02-02T06:50:18.976Z,77.10
2019-02-02T06:51:25.415Z,77.01
2019-02-02T06:52:31.295Z,76.87
2019-02-02T06:53:37.410Z,76.82
2019-02-02T06:54:43.611Z,76.91
2019-02-02T06:55:49.718Z,77.15
2019-02-02T06:56:55.949Z,76.91
2019-02-02T06:58:01.821Z,76.91
2019-02-02T06:59:07.775Z,76.93
2019-02-02T07:00:26.556Z,76.78
2019-02-02T07:01:32.499Z,76.69
2019-02-02T07:02:38.252Z,76.65
2019-02-02T07:03:44.474Z,76.61
2019-02-02T07:04:50.585Z,76.67
2019-02-02T07:05:56.772Z,76.71
2019-02-02T07:07:02.803Z,76.75
2019-02-02T07:08:09.056Z,76.74
2019-02-02T07:09:15.457Z,76.67
2019-02-02T07:10:27.738Z,76.62
2019-02-02T07:11:33.556Z,76.45
2019-02-02T07:12:39.752Z,76.46
2019-02-02T07:13:45.933Z,76.46
2019-02-02T07:14:52.123Z,76.42
2019-02-02T07:15:58.050Z,76.32
2019-02-02T07:17:05.046Z,76.34
2019-02-02T07:18:10.989Z,76.44
2019-02-02T07:19:17.226Z,76.33
2019-02-02T07:20:23.171Z,76.42
2019-02-02T07:21:29.294Z,76.35
2019-02-02T07:22:35.446Z,76.26
2019-02-02T07:23:41.499Z,76.26
2019-02-02T07:24:50.065Z,76.35
2019-02-02T07:25:55.403Z,76.53
2019-02-02T07:27:01.683Z,76.40
2019-02-02T07:28:07.839Z,76.67
2019-02-02T07:29:14.079Z,76.75
2019-02-02T07:30:29.606Z,76.64
2019-02-02T07:31:32.732Z,76.57
2019-02-02T07:32:38.895Z,76.67
2019-02-02T07:33:45.086Z,76.57
2019-02-02T07:34:51.206Z,76.53
2019-02-02T07:35:57.313Z,76.62
2019-02-02T07:37:03.495Z,76.70
2019-02-02T07:38:09.597Z,76.54
2019-02-02T07:39:15.482Z,76.66
2019-02-02T07:40:22.085Z,76.83
2019-02-02T07:41:27.869Z,76.60
2019-02-02T07:42:33.817Z,76.38
2019-02-02T07:43:40.264Z,76.51
2019-02-02T07:44:46.509Z,76.68
2019-02-02T07:45:52.827Z,76.61
2019-02-02T07:46:59.246Z,76.54
2019-02-02T07:48:05.654Z,76.36
2019-02-02T07:49:12.019Z,76.45
2019-02-02T07:50:18.554Z,76.39
2019-02-02T07:51:24.830Z,76.50
2019-02-02T07:52:31.100Z,76.54
2019-02-02T07:53:37.371Z,76.34
2019-02-02T07:54:43.552Z,76.19
2019-02-02T07:55:49.532Z,76.26
2019-02-02T07:56:55.693Z,76.42
2019-02-02T07:58:01.854Z,76.53
2019-02-02T07:59:07.939Z,76.56
2019-02-02T08:00:39.644Z,76.69
2019-02-02T08:01:35.602Z,76.58
2019-02-02T08:02:41.754Z,76.47
2019-02-02T08:03:47.652Z,76.44
2019-02-02T08:04:53.791Z,76.48
2019-02-02T08:05:59.986Z,76.47
2019-02-02T08:07:06.207Z,76.55
2019-02-02T08:08:12.412Z,76.39
2019-02-02T08:09:18.658Z,76.33
2019-02-02T08:10:24.934Z,76.23
2019-02-02T08:11:31.228Z,76.13
2019-02-02T08:12:39.614Z,76.09
2019-02-02T08:13:45.879Z,76.14
2019-02-02T08:14:52.028Z,76.04
2019-02-02T08:15:59.582Z,75.97
2019-02-02T08:17:05.745Z,75.92
2019-02-02T08:18:11.715Z,76.01
2019-02-02T08:19:17.641Z,75.95
2019-02-02T08:20:24.339Z,76.06
2019-02-02T08:21:30.965Z,75.95
2019-02-02T08:22:37.099Z,75.99
2019-02-02T08:23:43.379Z,76.07
2019-02-02T08:24:49.337Z,75.90
2019-02-02T08:25:55.247Z,75.90
2019-02-02T08:27:01.064Z,76.00
2019-02-02T08:28:07.967Z,76.10
2019-02-02T08:29:14.160Z,76.09
2019-02-02T08:30:29.542Z,75.98
2019-02-02T08:31:35.432Z,75.89
2019-02-02T08:32:41.657Z,75.84
2019-02-02T08:33:47.963Z,75.83
2019-02-02T08:34:54.271Z,75.91
2019-02-02T08:36:03.907Z,76.14
2019-02-02T08:37:08.774Z,76.17
2019-02-02T08:38:14.968Z,76.02
2019-02-02T08:39:28.858Z,75.80
2019-02-02T08:40:29.014Z,75.79
2019-02-02T08:41:35.171Z,75.84
2019-02-02T08:42:41.415Z,75.91
2019-02-02T08:43:47.807Z,76.03
2019-02-02T08:44:54.055Z,75.92
2019-02-02T08:46:00.433Z,75.85
2019-02-02T08:47:06.521Z,75.87
2019-02-02T08:48:12.697Z,75.96
2019-02-02T08:49:18.781Z,76.02
2019-02-02T08:50:28.945Z,75.86
2019-02-02T08:51:35.211Z,75.76
2019-02-02T08:52:41.798Z,75.79
2019-02-02T08:53:48.035Z,75.92
2019-02-02T08:54:54.472Z,75.83
2019-02-02T08:56:00.471Z,75.84
2019-02-02T08:57:06.670Z,75.85
2019-02-02T08:58:12.924Z,75.97
2019-02-02T08:59:19.195Z,75.75
2019-02-02T09:00:25.435Z,75.60
2019-02-02T09:01:32.029Z,75.56
2019-02-02T09:02:38.196Z,75.79
2019-02-02T09:03:44.490Z,75.57
2019-02-02T09:04:50.751Z,75.61
2019-02-02T09:05:56.713Z,75.72
2019-02-02T09:07:02.637Z,75.68
2019-02-02T09:08:08.749Z,75.72
2019-02-02T09:09:15.039Z,75.65
2019-02-02T09:10:24.395Z,75.81
2019-02-02T09:11:31.325Z,75.95
2019-02-02T09:12:37.548Z,76.19
2019-02-02T09:13:43.519Z,76.19
2019-02-02T09:14:49.584Z,76.08
2019-02-02T09:15:55.953Z,76.11
2019-02-02T09:17:02.113Z,76.06
2019-02-02T09:18:08.563Z,75.99
2019-02-02T09:19:14.672Z,75.89
2019-02-02T09:20:20.827Z,75.79
2019-02-02T09:21:27.052Z,75.67
2019-02-02T09:22:33.157Z,75.78
2019-02-02T09:23:39.359Z,75.76
2019-02-02T09:24:45.566Z,75.73
2019-02-02T09:25:52.220Z,75.93
2019-02-02T09:26:58.574Z,76.06
2019-02-02T09:28:05.854Z,75.90
2019-02-02T09:29:11.979Z,75.75
2019-02-02T09:30:29.869Z,75.60
2019-02-02T09:31:35.969Z,75.72
2019-02-02T09:32:42.083Z,76.00
2019-02-02T09:33:48.172Z,75.81
2019-02-02T09:34:54.526Z,75.85
2019-02-02T09:36:00.874Z,75.63
2019-02-02T09:37:07.028Z,75.43
2019-02-02T09:38:13.136Z,75.55
2019-02-02T09:39:19.476Z,75.75
2019-02-02T09:40:26.770Z,75.61
2019-02-02T09:41:33.181Z,75.53
2019-02-02T09:42:39.566Z,75.57
2019-02-02T09:43:45.674Z,75.60
2019-02-02T09:44:51.835Z,75.61
2019-02-02T09:45:57.961Z,75.40
2019-02-02T09:47:04.290Z,75.34
2019-02-02T09:48:12.349Z,75.49
2019-02-02T09:49:18.788Z,75.60
2019-02-02T09:50:26.392Z,75.67
2019-02-02T09:51:32.614Z,75.66
2019-02-02T09:52:38.716Z,75.60
2019-02-02T09:53:44.870Z,75.53
2019-02-02T09:54:50.980Z,75.52
2019-02-02T09:55:57.336Z,75.60
2019-02-02T09:57:03.539Z,75.52
2019-02-02T09:58:10.248Z,75.69
2019-02-02T09:59:16.325Z,75.78
2019-02-02T10:00:29.358Z,75.72
2019-02-02T10:01:35.600Z,75.63
2019-02-02T10:02:41.911Z,75.50
2019-02-02T10:03:48.012Z,75.40
2019-02-02T10:04:54.185Z,75.32
2019-02-02T10:06:00.395Z,75.45
2019-02-02T10:07:06.665Z,75.32
2019-02-02T10:08:12.834Z,75.26
2019-02-02T10:09:18.931Z,75.18
2019-02-02T10:10:33.940Z,75.06
2019-02-02T10:11:40.601Z,75.18
2019-02-02T10:12:46.743Z,75.28
2019-02-02T10:13:53.014Z,75.43
2019-02-02T10:14:59.260Z,75.28
2019-02-02T10:16:05.627Z,75.15
2019-02-02T10:17:11.923Z,75.13
2019-02-02T10:18:18.162Z,75.08
2019-02-02T10:19:24.430Z,75.08
2019-02-02T10:20:32.654Z,75.11
2019-02-02T10:21:39.088Z,75.06
2019-02-02T10:22:45.322Z,75.22
2019-02-02T10:23:51.613Z,75.27
2019-02-02T10:24:57.582Z,75.13
2019-02-02T10:26:03.519Z,75.03
2019-02-02T10:27:09.566Z,74.92
2019-02-02T10:28:15.650Z,74.89
2019-02-02T10:29:21.576Z,74.79
2019-02-02T10:30:37.812Z,74.68
2019-02-02T10:31:43.921Z,74.62
2019-02-02T10:32:50.104Z,74.45
2019-02-02T10:33:56.308Z,74.63
2019-02-02T10:35:02.134Z,74.71
2019-02-02T10:36:08.131Z,74.71
2019-02-02T10:37:14.235Z,74.70
2019-02-02T10:38:20.447Z,74.40
2019-02-02T10:39:26.613Z,74.17
2019-02-02T10:40:32.964Z,74.06
2019-02-02T10:41:39.297Z,74.24
2019-02-02T10:42:45.205Z,74.18
2019-02-02T10:43:51.369Z,74.06
2019-02-02T10:44:57.643Z,73.87
2019-02-02T10:46:03.881Z,73.49
2019-02-02T10:47:10.240Z,73.12
2019-02-02T10:48:16.715Z,73.24
2019-02-02T10:49:22.799Z,73.14
2019-02-02T10:50:29.009Z,73.27
2019-02-02T10:51:35.283Z,72.91
2019-02-02T10:52:41.608Z,72.99
2019-02-02T10:53:47.705Z,72.98
2019-02-02T10:54:53.870Z,72.99
2019-02-02T10:55:59.995Z,72.99
2019-02-02T10:57:06.451Z,73.06
2019-02-02T10:58:12.621Z,73.02
2019-02-02T10:59:18.989Z,73.03
2019-02-02T11:00:32.419Z,73.06
2019-02-02T11:01:50.460Z,73.11
2019-02-02T11:02:46.656Z,72.99
2019-02-02T11:03:52.844Z,73.03
2019-02-02T11:04:59.322Z,73.23
2019-02-02T11:06:05.645Z,72.96
2019-02-02T11:07:12.104Z,73.06
2019-02-02T11:08:18.172Z,72.99
2019-02-02T11:13:57.563Z,73.38
2019-02-02T11:15:11.060Z,73.67
2019-02-02T11:16:17.035Z,73.79
2019-02-02T11:17:23.405Z,73.84
2019-02-02T11:18:29.754Z,73.84
2019-02-02T11:19:35.889Z,73.75
2019-02-02T11:20:41.554Z,73.73
2019-02-02T11:21:47.704Z,73.57
2019-02-02T11:22:53.739Z,73.36
2019-02-02T11:23:59.632Z,73.36
2019-02-02T11:25:09.706Z,73.59
2019-02-02T11:26:16.080Z,73.54
2019-02-02T11:27:22.658Z,73.67
2019-02-02T11:28:29.005Z,73.63
2019-02-02T11:29:35.341Z,73.69
2019-02-02T11:30:41.628Z,73.88
2019-02-02T11:31:47.593Z,73.79
2019-02-02T11:32:53.263Z,73.69
2019-02-02T11:33:59.347Z,73.74
2019-02-02T11:35:12.859Z,73.70
2019-02-02T11:36:18.728Z,73.63
2019-02-02T11:37:24.659Z,73.76
2019-02-02T11:38:30.910Z,73.67
2019-02-02T11:39:37.009Z,73.81
2019-02-02T11:40:42.834Z,73.87
2019-02-02T11:41:48.835Z,73.89
2019-02-02T11:42:54.829Z,73.67
2019-02-02T11:44:01.947Z,73.53
2019-02-02T11:45:12.467Z,73.60
2019-02-02T11:46:18.714Z,73.65
2019-02-02T11:47:24.558Z,73.79
2019-02-02T11:48:30.503Z,73.97
2019-02-02T11:49:36.466Z,73.72
2019-02-02T11:50:42.457Z,73.96
2019-02-02T11:51:48.494Z,73.80
2019-02-02T11:52:54.172Z,73.68
2019-02-02T11:54:00.172Z,73.66
2019-02-02T11:55:10.925Z,73.62
2019-02-02T11:56:17.234Z,73.50
2019-02-02T11:57:23.054Z,73.83
2019-02-02T11:58:28.994Z,73.79
2019-02-02T11:59:35.107Z,73.71
2019-02-02T12:00:43.609Z,73.79
2019-02-02T12:01:49.898Z,73.77
2019-02-02T12:02:55.671Z,73.88
2019-02-02T12:04:01.807Z,74.04
2019-02-02T12:05:09.140Z,73.80
2019-02-02T12:06:15.312Z,73.77
2019-02-02T12:07:21.337Z,73.60
2019-02-02T12:08:27.160Z,73.61
2019-02-02T12:09:33.096Z,73.67
2019-02-02T12:10:40.622Z,73.75
2019-02-02T12:11:46.552Z,73.74
2019-02-02T12:12:52.419Z,73.83
2019-02-02T12:13:58.257Z,74.05
2019-02-02T12:15:05.906Z,74.09
2019-02-02T12:16:11.663Z,74.25
2019-02-02T12:17:17.524Z,73.98
2019-02-02T12:18:23.692Z,73.81
2019-02-02T12:19:30.045Z,74.19
2019-02-02T12:20:35.919Z,74.01
2019-02-02T12:21:42.061Z,73.91
2019-02-02T12:22:48.023Z,74.26
2019-02-02T12:23:54.249Z,74.28
2019-02-02T12:25:01.884Z,74.28
2019-02-02T12:26:11.258Z,74.26
2019-02-02T12:27:17.442Z,74.18
2019-02-02T12:28:23.675Z,74.02
2019-02-02T12:29:29.777Z,74.16
2019-02-02T12:30:36.413Z,74.13
2019-02-02T12:31:42.278Z,74.19
2019-02-02T12:32:48.067Z,74.24
2019-02-02T12:33:54.061Z,74.25
2019-02-02T12:35:00.427Z,74.26
2019-02-02T12:36:06.590Z,74.35
2019-02-02T12:37:12.773Z,74.16
2019-02-02T12:38:19.026Z,74.15
2019-02-02T12:39:25.209Z,74.15
2019-02-02T12:40:31.560Z,74.05
2019-02-02T12:41:37.783Z,73.99
2019-02-02T12:42:45.562Z,73.97
2019-02-02T12:43:51.510Z,73.87
2019-02-02T12:44:58.584Z,73.96
2019-02-02T12:46:05.871Z,73.79
2019-02-02T12:47:11.826Z,73.58
2019-02-02T12:48:17.759Z,73.64
2019-02-02T12:49:23.871Z,73.72
2019-02-02T12:50:29.971Z,73.87
2019-02-02T12:51:36.136Z,73.95
2019-02-02T12:52:42.394Z,74.19
2019-02-02T12:53:48.709Z,74.01
2019-02-02T12:54:55.151Z,73.83
2019-02-02T12:56:01.342Z,73.95
2019-02-02T12:57:07.827Z,73.92
2019-02-02T12:58:13.675Z,73.85
2019-02-02T12:59:19.626Z,73.90
2019-02-02T13:00:25.754Z,73.77
2019-02-02T13:01:31.924Z,73.77
2019-02-02T13:02:38.563Z,73.87
2019-02-02T13:03:44.858Z,73.87
2019-02-02T13:04:51.218Z,73.94
2019-02-02T13:05:57.366Z,74.02
2019-02-02T13:07:03.540Z,74.01
2019-02-02T13:08:09.572Z,73.90
2019-02-02T13:09:15.597Z,73.97
2019-02-02T13:10:29.434Z,74.03
2019-02-02T13:11:35.812Z,73.71
2019-02-02T13:12:41.978Z,73.77
2019-02-02T13:13:48.174Z,73.93
2019-02-02T13:14:54.367Z,74.05
2019-02-02T13:16:00.462Z,73.92
2019-02-02T13:17:07.897Z,73.86
2019-02-02T13:18:14.012Z,73.83
2019-02-02T13:19:20.154Z,73.80
2019-02-02T13:20:26.679Z,73.91
2019-02-02T13:21:32.770Z,74.01
2019-02-02T13:22:38.796Z,74.15
2019-02-02T13:23:44.753Z,73.98
2019-02-02T13:24:50.942Z,73.97
2019-02-02T13:26:05.159Z,73.83
2019-02-02T13:27:05.870Z,74.01
2019-02-02T13:28:12.020Z,73.92
2019-02-02T13:29:17.871Z,73.91
2019-02-02T13:30:26.468Z,74.00
2019-02-02T13:31:32.402Z,73.97
2019-02-02T13:32:49.155Z,73.71
2019-02-02T13:33:46.505Z,73.63
2019-02-02T13:34:52.610Z,73.66
2019-02-02T13:35:58.795Z,73.68
2019-02-02T13:37:05.646Z,73.49
2019-02-02T13:38:11.788Z,73.44
2019-02-02T13:39:17.726Z,73.58
2019-02-02T13:40:24.794Z,73.51
2019-02-02T13:41:31.172Z,73.40
2019-02-02T13:42:37.642Z,73.20
2019-02-02T13:43:43.773Z,73.19
2019-02-02T13:44:49.936Z,73.10
2019-02-02T13:45:56.170Z,73.07
2019-02-02T13:47:02.557Z,72.91
2019-02-02T13:48:08.654Z,73.08
2019-02-02T13:49:14.889Z,73.05
2019-02-02T13:50:20.772Z,73.14
2019-02-02T13:51:26.855Z,73.15
2019-02-02T13:52:33.099Z,73.02
2019-02-02T13:53:38.901Z,72.93
2019-02-02T13:54:44.597Z,72.88
2019-02-02T13:55:50.821Z,72.90
2019-02-02T13:56:56.985Z,73.07
2019-02-02T13:58:03.103Z,73.17
2019-02-02T13:59:09.436Z,73.06
2019-02-02T14:00:20.709Z,73.09
2019-02-02T14:01:27.348Z,73.06
2019-02-02T14:02:33.814Z,73.04
2019-02-02T14:03:39.797Z,72.97
2019-02-02T14:04:45.491Z,72.89
2019-02-02T14:05:51.662Z,72.99
2019-02-02T14:06:58.009Z,73.08
2019-02-02T14:08:04.291Z,73.14
2019-02-02T14:09:10.569Z,73.03
2019-02-02T14:10:23.814Z,72.98
2019-02-02T14:11:30.036Z,72.94
2019-02-02T14:12:36.318Z,72.92
2019-02-02T14:13:42.587Z,72.87
2019-02-02T14:14:48.774Z,72.92
2019-02-02T14:15:55.049Z,72.90
2019-02-02T14:17:01.281Z,73.39
2019-02-02T14:18:07.394Z,73.18
2019-02-02T14:19:13.771Z,73.21
2019-02-02T14:20:20.759Z,73.15
2019-02-02T14:21:27.038Z,73.13
2019-02-02T14:22:33.171Z,73.56